createdAt,value
2019-03-10T00:00:21.056Z,7.17
2019-03-10T00:01:21.051Z,7.16
2019-03-10T00:02:21.028Z,7.14
2019-03-10T00:03:21.045Z,7.16
2019-03-10T00:04:21.060Z,7.14
2019-03-10T00:05:21.045Z,7.16
2019-03-10T00:06:21.058Z,7.13
2019-03-10T00:07:21.029Z,7.13
2019-03-10T00:08:21.045Z,7.15
2019-03-10T00:09:21.081Z,7.11
2019-03-10T00:10:21.028Z,7.12
2019-03-10T00:11:21.041Z,7.08
2019-03-10T00:12:21.056Z,7.07
2019-03-10T00:13:21.038Z,7.07
2019-03-10T00:14:21.252Z,7.09
2019-03-10T00:15:21.014Z,7.08
2019-03-10T00:16:21.096Z,7.08
2019-03-10T00:17:21.027Z,7.08
2019-03-10T00:18:21.035Z,7.06
2019-03-10T00:19:21.040Z,7.06
2019-03-10T00:20:21.007Z,7.04
2019-03-10T00:21:21.021Z,7.06
2019-03-10T00:22:21.019Z,7.06
2019-03-10T00:23:21.013Z,7.1
2019-03-10T00:24:21.009Z,7.11
2019-03-10T00:25:21.066Z,7.11
2019-03-10T00:26:21.447Z,7.1
2019-03-10T00:27:21.041Z,7.08
2019-03-10T00:28:21.022Z,7.08
2019-03-10T00:29:21.011Z,7.12
2019-03-10T00:30:21.032Z,7.12
2019-03-10T00:31:20.991Z,7.13
2019-03-10T00:32:20.996Z,7.11
2019-03-10T00:33:21.057Z,7.1
2019-03-10T00:34:20.985Z,7.09
2019-03-10T00:35:21.011Z,7.13
2019-03-10T00:36:21.305Z,7.08
2019-03-10T00:37:21.005Z,7.08
2019-03-10T00:38:21.114Z,7.09
2019-03-10T00:39:20.996Z,7.13
2019-03-10T00:40:21.000Z,7.18
2019-03-10T00:41:20.988Z,7.12
2019-03-10T00:42:21.030Z,7.17
2019-03-10T00:43:20.987Z,7.13
2019-03-10T00:44:21.017Z,7.13
2019-03-10T00:45:21.006Z,7.17
2019-03-10T00:46:20.978Z,7.14
2019-03-10T00:47:20.989Z,7.17
2019-03-10T00:48:20.977Z,7.18
2019-03-10T00:49:20.992Z,7.25
2019-03-10T00:50:20.991Z,7.19
2019-03-10T00:51:20.999Z,7.29
2019-03-10T00:52:20.989Z,7.29
2019-03-10T00:53:20.980Z,7.23
2019-03-10T00:54:20.962Z,7.32
2019-03-10T00:55:20.982Z,7.24
2019-03-10T00:56:20.971Z,7.25
2019-03-10T00:57:20.979Z,7.22
2019-03-10T00:58:21.910Z,7.21
2019-03-10T00:59:20.983Z,7.27
2019-03-10T01:00:21.087Z,7.3
2019-03-10T01:01:20.972Z,7.31
2019-03-10T01:02:20.954Z,7.25
2019-03-10T01:03:20.955Z,7.29
2019-03-10T01:04:20.950Z,7.3
2019-03-10T01:05:20.991Z,7.35
2019-03-10T01:06:20.975Z,7.31
2019-03-10T01:07:20.974Z,7.28
2019-03-10T01:08:22.273Z,7.35
2019-03-10T01:09:20.978Z,7.33
2019-03-10T01:10:20.949Z,7.35
2019-03-10T01:11:20.950Z,7.3
2019-03-10T01:12:20.959Z,7.35
2019-03-10T01:13:20.965Z,7.32
2019-03-10T01:14:21.049Z,7.33
2019-03-10T01:15:20.955Z,7.37
2019-03-10T01:16:20.954Z,7.36
2019-03-10T01:17:20.989Z,7.43
2019-03-10T01:18:20.946Z,7.38
2019-03-10T01:19:20.946Z,7.48
2019-03-10T01:20:20.953Z,7.47
2019-03-10T01:21:20.994Z,7.5
2019-03-10T01:22:20.937Z,7.43
2019-03-10T01:23:20.940Z,7.54
2019-03-10T01:24:20.944Z,7.5
2019-03-10T01:25:20.959Z,7.51
2019-03-10T01:26:20.950Z,7.48
2019-03-10T01:27:20.982Z,7.49
2019-03-10T01:28:20.959Z,7.47
2019-03-10T01:29:20.944Z,7.47
2019-03-10T01:30:20.949Z,7.53
2019-03-10T01:31:20.936Z,7.5
2019-03-10T01:32:20.933Z,7.56
2019-03-10T01:33:20.974Z,7.63
2019-03-10T01:34:20.927Z,7.57
2019-03-10T01:35:20.919Z,7.6
2019-03-10T01:36:20.914Z,7.57
2019-03-10T01:37:20.936Z,7.57
2019-03-10T01:38:20.918Z,7.59
2019-03-10T01:39:20.966Z,7.58
2019-03-10T01:40:20.925Z,7.63
2019-03-10T01:41:20.928Z,7.6
2019-03-10T01:42:21.209Z,7.57
2019-03-10T01:43:20.904Z,7.56
2019-03-10T01:44:20.893Z,7.54
2019-03-10T01:45:20.919Z,7.55
2019-03-10T01:46:20.898Z,7.56
2019-03-10T01:47:20.917Z,7.51
2019-03-10T01:48:20.903Z,7.53
2019-03-10T01:49:20.897Z,7.54
2019-03-10T01:50:20.901Z,7.49
2019-03-10T01:51:20.900Z,7.53
2019-03-10T01:52:20.915Z,7.6
2019-03-10T01:53:26.193Z,7.62
2019-03-10T01:54:21.383Z,7.58
2019-03-10T01:55:20.924Z,7.53
2019-03-10T01:56:20.931Z,7.55
2019-03-10T01:57:20.891Z,7.53
2019-03-10T01:58:20.931Z,7.56
2019-03-10T01:59:20.956Z,7.54
2019-03-10T02:00:20.917Z,7.5
2019-03-10T02:01:20.873Z,7.52
2019-03-10T02:02:26.171Z,7.54
2019-03-10T02:03:20.887Z,7.5
2019-03-10T02:04:20.869Z,7.56
2019-03-10T02:05:20.873Z,7.62
2019-03-10T02:06:20.901Z,7.63
2019-03-10T02:07:20.912Z,7.63
2019-03-10T02:08:20.879Z,7.62
2019-03-10T02:09:20.883Z,7.6
2019-03-10T02:10:20.868Z,7.57
2019-03-10T02:11:20.878Z,7.61
2019-03-10T02:12:20.862Z,7.57
2019-03-10T02:13:20.881Z,7.66
2019-03-10T02:14:20.879Z,7.65
2019-03-10T02:15:20.880Z,7.63
2019-03-10T02:16:20.866Z,7.63
2019-03-10T02:17:20.880Z,7.66
2019-03-10T02:18:20.862Z,7.67
2019-03-10T02:19:20.861Z,7.72
2019-03-10T02:20:20.876Z,7.72
2019-03-10T02:21:20.855Z,7.74
2019-03-10T02:22:20.857Z,7.72
2019-03-10T02:23:20.855Z,7.73
2019-03-10T02:24:24.489Z,7.79
2019-03-10T02:25:20.931Z,7.75
2019-03-10T02:26:20.878Z,7.76
2019-03-10T02:27:20.868Z,7.88
2019-03-10T02:28:20.856Z,7.98
2019-03-10T02:29:20.936Z,7.98
2019-03-10T02:30:20.872Z,8.02
2019-03-10T02:31:20.846Z,7.94
2019-03-10T02:32:20.837Z,8.02
2019-03-10T02:33:20.841Z,8.06
2019-03-10T02:34:20.913Z,8.08
2019-03-10T02:35:20.850Z,7.97
2019-03-10T02:36:20.837Z,7.89
2019-03-10T02:37:20.838Z,7.98
2019-03-10T02:38:20.842Z,8
2019-03-10T02:39:20.834Z,8.01
2019-03-10T02:40:20.846Z,7.95
2019-03-10T02:41:20.842Z,7.98
2019-03-10T02:42:20.830Z,8.01
2019-03-10T02:43:20.857Z,8.01
2019-03-10T02:44:20.832Z,7.96
2019-03-10T02:45:20.847Z,7.97
2019-03-10T02:46:20.849Z,7.98
2019-03-10T02:47:22.268Z,7.92
2019-03-10T02:48:20.845Z,7.91
2019-03-10T02:49:20.839Z,7.93
2019-03-10T02:50:20.855Z,7.96
2019-03-10T02:51:20.953Z,7.92
2019-03-10T02:52:20.842Z,8
2019-03-10T02:53:20.863Z,7.96
2019-03-10T02:54:20.845Z,7.98
2019-03-10T02:55:20.863Z,7.95
2019-03-10T02:56:20.846Z,7.97
2019-03-10T02:57:20.843Z,7.94
2019-03-10T02:58:20.872Z,7.9
2019-03-10T02:59:20.832Z,7.83
2019-03-10T03:00:20.877Z,7.98
2019-03-10T03:01:20.857Z,7.86
2019-03-10T03:02:20.824Z,7.79
2019-03-10T03:03:20.786Z,7.8
2019-03-10T03:04:20.834Z,7.79
2019-03-10T03:05:20.831Z,7.92
2019-03-10T03:06:20.822Z,7.83
2019-03-10T03:07:20.822Z,7.86
2019-03-10T03:08:20.867Z,7.97
2019-03-10T03:09:20.818Z,7.9
2019-03-10T03:10:20.774Z,7.91
2019-03-10T03:11:20.783Z,7.92
2019-03-10T03:12:20.789Z,7.93
2019-03-10T03:13:20.820Z,7.98
2019-03-10T03:14:20.809Z,7.92
2019-03-10T03:15:20.781Z,7.92
2019-03-10T03:16:20.819Z,7.9
2019-03-10T03:17:20.770Z,7.91
2019-03-10T03:18:20.800Z,7.97
2019-03-10T03:19:20.790Z,7.96
2019-03-10T03:20:20.853Z,7.97
2019-03-10T03:21:20.801Z,7.85
2019-03-10T03:22:20.807Z,7.88
2019-03-10T03:23:20.764Z,7.98
2019-03-10T03:24:20.803Z,7.83
2019-03-10T03:25:20.776Z,7.91
2019-03-10T03:26:20.787Z,7.86
2019-03-10T03:27:20.759Z,7.83
2019-03-10T03:28:20.818Z,7.87
2019-03-10T03:29:20.809Z,8.01
2019-03-10T03:30:20.947Z,7.86
2019-03-10T03:31:20.786Z,7.85
2019-03-10T03:32:20.895Z,7.81
2019-03-10T03:33:20.826Z,7.96
2019-03-10T03:34:20.815Z,7.92
2019-03-10T03:35:20.774Z,7.86
2019-03-10T03:36:20.781Z,7.98
2019-03-10T03:37:20.835Z,7.89
2019-03-10T03:38:20.801Z,7.88
2019-03-10T03:39:20.757Z,7.95
2019-03-10T03:40:20.799Z,7.85
2019-03-10T03:41:20.767Z,7.89
2019-03-10T03:42:20.765Z,7.89
2019-03-10T03:43:20.740Z,7.92
2019-03-10T03:44:20.786Z,7.94
2019-03-10T03:45:20.759Z,7.89
2019-03-10T03:46:20.803Z,7.97
2019-03-10T03:47:20.789Z,7.96
2019-03-10T03:48:20.741Z,7.92
2019-03-10T03:49:20.742Z,8.01
2019-03-10T03:50:20.740Z,8.03
2019-03-10T03:51:20.775Z,8.11
2019-03-10T03:52:21.031Z,8.12
2019-03-10T03:53:20.782Z,8.07
2019-03-10T03:54:20.755Z,8.13
2019-03-10T03:55:20.733Z,8.15
2019-03-10T03:56:20.729Z,8.18
2019-03-10T03:57:20.753Z,8.23
2019-03-10T03:58:20.728Z,8.19
2019-03-10T03:59:20.731Z,8.27
2019-03-10T04:00:20.750Z,8.12
2019-03-10T04:01:20.731Z,8.24
2019-03-10T04:02:20.725Z,8.25
2019-03-10T04:03:20.725Z,8.32
2019-03-10T04:04:20.773Z,8.36
2019-03-10T04:05:20.787Z,8.36
2019-03-10T04:06:20.778Z,8.32
2019-03-10T04:07:20.761Z,8.27
2019-03-10T04:08:20.719Z,8.27
2019-03-10T04:09:20.741Z,8.28
2019-03-10T04:10:20.732Z,8.35
2019-03-10T04:11:20.724Z,8.27
2019-03-10T04:12:20.696Z,8.18
2019-03-10T04:13:20.916Z,8.27
2019-03-10T04:14:20.975Z,8.32
2019-03-10T04:15:20.695Z,8.24
2019-03-10T04:16:20.769Z,8.2
2019-03-10T04:17:20.720Z,8.2
2019-03-10T04:18:20.738Z,8.15
2019-03-10T04:19:20.701Z,8.03
2019-03-10T04:20:20.706Z,8.09
2019-03-10T04:21:20.681Z,8.08
2019-03-10T04:22:20.676Z,8.09
2019-03-10T04:23:20.709Z,8.1
2019-03-10T04:24:20.693Z,8.09
2019-03-10T04:25:20.785Z,8
2019-03-10T04:26:20.707Z,7.97
2019-03-10T04:27:20.698Z,8.04
2019-03-10T04:28:20.690Z,8
2019-03-10T04:29:22.079Z,7.93
2019-03-10T04:30:20.681Z,8.01
2019-03-10T04:31:20.696Z,8.01
2019-03-10T04:32:20.665Z,7.96
2019-03-10T04:33:20.667Z,7.88
2019-03-10T04:34:20.680Z,7.87
2019-03-10T04:35:20.842Z,7.91
2019-03-10T04:36:20.698Z,7.86
2019-03-10T04:37:20.672Z,7.82
2019-03-10T04:38:20.694Z,7.79
2019-03-10T04:39:20.754Z,7.81
2019-03-10T04:40:20.692Z,7.77
2019-03-10T04:41:20.659Z,7.86
2019-03-10T04:42:20.677Z,7.78
2019-03-10T04:43:20.769Z,7.81
2019-03-10T04:44:20.653Z,7.75
2019-03-10T04:45:20.693Z,7.7
2019-03-10T04:46:20.664Z,7.69
2019-03-10T04:47:20.650Z,7.76
2019-03-10T04:48:20.651Z,7.77
2019-03-10T04:49:20.665Z,7.76
2019-03-10T04:50:20.647Z,7.68
2019-03-10T04:51:20.649Z,7.7
2019-03-10T04:52:20.660Z,7.71
2019-03-10T04:53:20.662Z,7.66
2019-03-10T04:54:20.657Z,7.66
2019-03-10T04:55:20.681Z,7.63
2019-03-10T04:56:20.654Z,7.61
2019-03-10T04:57:20.647Z,7.63
2019-03-10T04:58:20.647Z,7.61
2019-03-10T04:59:20.630Z,7.63
2019-03-10T05:00:20.929Z,7.62
2019-03-10T05:01:20.658Z,7.6
2019-03-10T05:02:20.660Z,7.6
2019-03-10T05:03:20.646Z,7.58
2019-03-10T05:04:20.657Z,7.48
2019-03-10T05:05:20.661Z,7.57
2019-03-10T05:06:20.809Z,7.53
2019-03-10T05:07:20.797Z,7.59
2019-03-10T05:08:20.623Z,7.54
2019-03-10T05:09:20.631Z,7.54
2019-03-10T05:10:20.623Z,7.56
2019-03-10T05:11:20.619Z,7.53
2019-03-10T05:12:20.627Z,7.54
2019-03-10T05:13:20.623Z,7.51
2019-03-10T05:14:20.613Z,7.47
2019-03-10T05:15:20.652Z,7.52
2019-03-10T05:16:20.731Z,7.51
2019-03-10T05:17:20.622Z,7.49
2019-03-10T05:18:20.624Z,7.49
2019-03-10T05:19:20.607Z,7.47
2019-03-10T05:20:20.685Z,7.49
2019-03-10T05:21:20.633Z,7.45
2019-03-10T05:22:20.603Z,7.5
2019-03-10T05:23:20.607Z,7.47
2019-03-10T05:24:20.660Z,7.4
2019-03-10T05:25:20.592Z,7.41
2019-03-10T05:26:20.624Z,7.43
2019-03-10T05:27:20.610Z,7.49
2019-03-10T05:28:20.695Z,7.47
2019-03-10T05:29:20.639Z,7.42
2019-03-10T05:30:20.611Z,7.46
2019-03-10T05:31:20.726Z,7.46
2019-03-10T05:32:20.600Z,7.4
2019-03-10T05:33:20.598Z,7.4
2019-03-10T05:34:20.601Z,7.42
2019-03-10T05:35:20.612Z,7.4
2019-03-10T05:36:20.596Z,7.38
2019-03-10T05:37:20.586Z,7.4
2019-03-10T05:38:20.594Z,7.36
2019-03-10T05:39:20.578Z,7.39
2019-03-10T05:40:20.584Z,7.42
2019-03-10T05:41:20.597Z,7.37
2019-03-10T05:42:20.614Z,7.39
2019-03-10T05:43:20.591Z,7.45
2019-03-10T05:44:20.639Z,7.44
2019-03-10T05:45:20.586Z,7.44
2019-03-10T05:46:20.588Z,7.42
2019-03-10T05:47:20.572Z,7.44
2019-03-10T05:48:20.578Z,7.46
2019-03-10T05:49:20.596Z,7.42
2019-03-10T05:50:20.580Z,7.39
2019-03-10T05:51:20.577Z,7.42
2019-03-10T05:52:20.564Z,7.43
2019-03-10T05:53:20.575Z,7.51
2019-03-10T05:54:20.595Z,7.48
2019-03-10T05:55:20.594Z,7.48
2019-03-10T05:56:20.547Z,7.5
2019-03-10T05:57:20.574Z,7.51
2019-03-10T05:58:20.557Z,7.52
2019-03-10T05:59:20.597Z,7.48
2019-03-10T06:00:20.614Z,7.42
2019-03-10T06:01:20.571Z,7.46
2019-03-10T06:02:20.561Z,7.46
2019-03-10T06:03:20.576Z,7.44
2019-03-10T06:04:20.553Z,7.42
2019-03-10T06:05:20.575Z,7.46
2019-03-10T06:06:20.582Z,7.46
2019-03-10T06:07:20.547Z,7.5
2019-03-10T06:08:20.620Z,7.51
2019-03-10T06:09:20.559Z,7.45
2019-03-10T06:10:20.554Z,7.48
2019-03-10T06:11:20.622Z,7.51
2019-03-10T06:12:20.622Z,7.54
2019-03-10T06:13:20.568Z,7.51
2019-03-10T06:14:20.585Z,7.5
2019-03-10T06:15:20.624Z,7.48
2019-03-10T06:16:20.554Z,7.48
2019-03-10T06:17:21.826Z,7.52
2019-03-10T06:18:20.534Z,7.46
2019-03-10T06:19:20.697Z,7.52
2019-03-10T06:20:20.536Z,7.5
2019-03-10T06:21:20.536Z,7.56
2019-03-10T06:22:20.584Z,7.6
2019-03-10T06:23:20.569Z,7.58
2019-03-10T06:24:20.597Z,7.57
2019-03-10T06:25:20.551Z,7.58
2019-03-10T06:26:20.522Z,7.57
2019-03-10T06:27:20.535Z,7.54
2019-03-10T06:28:20.547Z,7.55
2019-03-10T06:29:20.567Z,7.54
2019-03-10T06:30:20.514Z,7.47
2019-03-10T06:31:20.587Z,7.5
2019-03-10T06:32:20.530Z,7.51
2019-03-10T06:33:20.648Z,7.49
2019-03-10T06:34:20.735Z,7.51
2019-03-10T06:35:20.521Z,7.54
2019-03-10T06:36:20.534Z,7.56
2019-03-10T06:37:20.611Z,7.47
2019-03-10T06:38:20.578Z,7.47
2019-03-10T06:39:20.515Z,7.5
2019-03-10T06:40:32.784Z,7.56
2019-03-10T06:41:20.539Z,7.53
2019-03-10T06:42:20.509Z,7.5
2019-03-10T06:43:20.507Z,7.48
2019-03-10T06:44:21.369Z,7.5
2019-03-10T06:45:20.508Z,7.48
2019-03-10T06:46:20.522Z,7.51
2019-03-10T06:47:20.480Z,7.61
2019-03-10T06:48:20.498Z,7.6
2019-03-10T06:49:20.490Z,7.61
2019-03-10T06:50:20.535Z,7.64
2019-03-10T06:51:20.488Z,7.58
2019-03-10T06:52:20.518Z,7.55
2019-03-10T06:53:20.485Z,7.52
2019-03-10T06:54:20.501Z,7.55
2019-03-10T06:55:20.545Z,7.6
2019-03-10T06:56:20.490Z,7.64
2019-03-10T06:57:20.502Z,7.61
2019-03-10T06:58:20.480Z,7.64
2019-03-10T06:59:20.508Z,7.67
2019-03-10T07:00:20.486Z,7.68
2019-03-10T07:01:20.507Z,7.66
2019-03-10T07:02:20.523Z,7.7
2019-03-10T07:03:20.492Z,7.7
2019-03-10T07:04:20.489Z,7.73
2019-03-10T07:05:20.496Z,7.79
2019-03-10T07:06:20.472Z,7.85
2019-03-10T07:07:20.480Z,7.82
2019-03-10T07:08:20.544Z,7.84
2019-03-10T07:09:20.508Z,7.8
2019-03-10T07:10:20.500Z,7.87
2019-03-10T07:11:20.462Z,7.8
2019-03-10T07:12:20.456Z,7.83
2019-03-10T07:13:20.469Z,7.9
2019-03-10T07:14:20.455Z,7.92
2019-03-10T07:15:20.472Z,7.94
2019-03-10T07:16:20.475Z,7.91
2019-03-10T07:17:20.715Z,7.92
2019-03-10T07:18:20.476Z,7.91
2019-03-10T07:19:20.472Z,7.92
2019-03-10T07:20:20.448Z,7.97
2019-03-10T07:21:20.482Z,8.03
2019-03-10T07:22:20.460Z,8.05
2019-03-10T07:23:20.451Z,8.04
2019-03-10T07:24:20.475Z,8.1
2019-03-10T07:25:20.485Z,8.03
2019-03-10T07:26:20.483Z,8.07
2019-03-10T07:27:20.495Z,8.09
2019-03-10T07:28:20.444Z,8.09
2019-03-10T07:29:20.501Z,8.2
2019-03-10T07:30:20.436Z,8.25
2019-03-10T07:31:20.437Z,8.21
2019-03-10T07:32:20.442Z,8.29
2019-03-10T07:33:20.509Z,8.32
2019-03-10T07:34:20.471Z,8.32
2019-03-10T07:35:20.437Z,8.33
2019-03-10T07:36:20.428Z,8.47
2019-03-10T07:37:20.432Z,8.56
2019-03-10T07:38:20.416Z,8.58
2019-03-10T07:39:20.468Z,8.63
2019-03-10T07:40:20.420Z,8.71
2019-03-10T07:41:20.453Z,8.79
2019-03-10T07:42:20.482Z,8.86
2019-03-10T07:43:20.442Z,8.89
2019-03-10T07:44:20.433Z,8.99
2019-03-10T07:45:20.415Z,8.96
2019-03-10T07:46:20.421Z,8.96
2019-03-10T07:47:20.474Z,8.96
2019-03-10T07:48:20.419Z,9.05
2019-03-10T07:49:20.500Z,9.14
2019-03-10T07:50:20.429Z,9.06
2019-03-10T07:51:20.409Z,9.06
2019-03-10T07:52:21.022Z,9.1
2019-03-10T07:53:20.403Z,9.05
2019-03-10T07:54:20.472Z,9.07
2019-03-10T07:55:20.379Z,9.1
2019-03-10T07:56:20.445Z,9.2
2019-03-10T07:57:20.405Z,9.16
2019-03-10T07:58:20.393Z,9.18
2019-03-10T07:59:20.465Z,9.11
2019-03-10T08:00:20.399Z,9.28
2019-03-10T08:01:20.487Z,9.27
2019-03-10T08:02:20.384Z,9.3
2019-03-10T08:03:20.396Z,9.35
2019-03-10T08:04:20.397Z,9.36
2019-03-10T08:05:20.426Z,9.33
2019-03-10T08:06:20.394Z,9.25
2019-03-10T08:07:20.419Z,9.35
2019-03-10T08:08:20.427Z,9.33
2019-03-10T08:09:20.420Z,9.25
2019-03-10T08:10:20.423Z,9.41
2019-03-10T08:11:20.389Z,9.45
2019-03-10T08:12:20.386Z,9.43
2019-03-10T08:13:20.411Z,9.51
2019-03-10T08:14:20.412Z,9.53
2019-03-10T08:15:20.483Z,9.51
2019-03-10T08:16:20.414Z,9.54
2019-03-10T08:17:20.459Z,9.51
2019-03-10T08:18:20.403Z,9.62
2019-03-10T08:19:20.376Z,9.72
2019-03-10T08:20:20.379Z,9.71
2019-03-10T08:21:20.394Z,9.7
2019-03-10T08:22:20.559Z,9.71
2019-03-10T08:23:20.425Z,9.73
2019-03-10T08:24:20.399Z,9.76
2019-03-10T08:25:20.420Z,9.77
2019-03-10T08:26:20.378Z,9.73
2019-03-10T08:27:20.381Z,9.8
2019-03-10T08:28:20.769Z,9.77
2019-03-10T08:29:20.366Z,9.88
2019-03-10T08:30:20.358Z,9.94
2019-03-10T08:31:20.361Z,9.91
2019-03-10T08:32:20.371Z,9.97
2019-03-10T08:33:20.385Z,9.96
2019-03-10T08:34:20.389Z,9.92
2019-03-10T08:35:20.359Z,10.01
2019-03-10T08:36:20.352Z,10.04
2019-03-10T08:37:20.350Z,9.95
2019-03-10T08:38:20.360Z,9.91
2019-03-10T08:39:20.364Z,9.98
2019-03-10T08:40:20.348Z,10.1
2019-03-10T08:41:20.354Z,10.05
2019-03-10T08:42:21.106Z,10.05
2019-03-10T08:43:20.339Z,10.06
2019-03-10T08:44:20.395Z,10.04
2019-03-10T08:45:20.351Z,10.12
2019-03-10T08:46:20.331Z,10.17
2019-03-10T08:47:20.382Z,10.07
2019-03-10T08:48:20.360Z,10.16
2019-03-10T08:49:20.346Z,10.19
2019-03-10T08:50:20.349Z,10.21
2019-03-10T08:51:20.323Z,10.22
2019-03-10T08:52:20.355Z,10.24
2019-03-10T08:53:20.342Z,10.17
2019-03-10T08:54:20.326Z,10.15
2019-03-10T08:55:20.318Z,10.26
2019-03-10T08:56:20.323Z,10.28
2019-03-10T08:57:20.324Z,10.36
2019-03-10T08:58:20.350Z,10.29
2019-03-10T08:59:20.351Z,10.28
2019-03-10T09:00:20.317Z,10.24
2019-03-10T09:01:20.325Z,10.28
2019-03-10T09:02:20.339Z,10.28
2019-03-10T09:03:20.311Z,10.26
2019-03-10T09:04:20.304Z,10.29
2019-03-10T09:05:20.322Z,10.38
2019-03-10T09:06:20.609Z,10.39
2019-03-10T09:07:20.292Z,10.51
2019-03-10T09:08:20.333Z,10.44
2019-03-10T09:09:20.385Z,10.47
2019-03-10T09:10:20.313Z,10.54
2019-03-10T09:11:20.293Z,10.51
2019-03-10T09:12:20.318Z,10.64
2019-03-10T09:13:20.290Z,10.57
2019-03-10T09:14:20.314Z,10.6
2019-03-10T09:15:20.328Z,10.64
2019-03-10T09:16:20.280Z,10.59
2019-03-10T09:17:20.285Z,10.61
2019-03-10T09:18:20.373Z,10.67
2019-03-10T09:19:20.313Z,10.63
2019-03-10T09:20:20.304Z,10.62
2019-03-10T09:21:20.290Z,10.74
2019-03-10T09:22:20.324Z,10.74
2019-03-10T09:23:20.298Z,10.67
2019-03-10T09:24:20.331Z,10.67
2019-03-10T09:25:20.314Z,10.66
2019-03-10T09:26:20.298Z,10.62
2019-03-10T09:27:20.319Z,10.7
2019-03-10T09:28:20.478Z,10.72
2019-03-10T09:29:20.305Z,10.67
2019-03-10T09:30:20.284Z,10.73
2019-03-10T09:31:20.296Z,10.77
2019-03-10T09:32:20.311Z,10.69
2019-03-10T09:33:20.381Z,10.79
2019-03-10T09:34:20.320Z,10.81
2019-03-10T09:35:20.294Z,10.7
2019-03-10T09:36:20.282Z,10.77
2019-03-10T09:37:20.301Z,10.78
2019-03-10T09:38:20.320Z,10.81
2019-03-10T09:39:20.339Z,10.73
2019-03-10T09:40:20.260Z,10.67
2019-03-10T09:41:20.266Z,10.67
2019-03-10T09:42:20.262Z,10.66
2019-03-10T09:43:20.269Z,10.65
2019-03-10T09:44:20.305Z,10.72
2019-03-10T09:45:20.304Z,10.69
2019-03-10T09:46:20.268Z,10.7
2019-03-10T09:47:20.322Z,10.71
2019-03-10T09:48:20.257Z,10.7
2019-03-10T09:49:20.487Z,10.72
2019-03-10T09:50:20.343Z,10.68
2019-03-10T09:51:20.266Z,10.73
2019-03-10T09:52:20.293Z,10.8
2019-03-10T09:53:20.370Z,10.82
2019-03-10T09:54:20.340Z,10.8
2019-03-10T09:55:20.266Z,10.64
2019-03-10T09:56:20.268Z,10.74
2019-03-10T09:57:20.290Z,10.76
2019-03-10T09:58:20.272Z,10.77
2019-03-10T09:59:20.261Z,10.8
2019-03-10T10:00:20.293Z,10.8
2019-03-10T10:01:20.348Z,10.81
2019-03-10T10:02:20.387Z,10.78
2019-03-10T10:03:20.357Z,10.8
2019-03-10T10:04:20.266Z,10.71
2019-03-10T10:05:20.232Z,10.81
2019-03-10T10:06:20.256Z,10.79
2019-03-10T10:07:20.246Z,10.68
2019-03-10T10:08:20.244Z,10.69
2019-03-10T10:09:20.279Z,10.76
2019-03-10T10:10:20.256Z,10.7
2019-03-10T10:11:20.270Z,10.74
2019-03-10T10:12:20.680Z,10.74
2019-03-10T10:13:20.279Z,10.75
2019-03-10T10:14:20.267Z,10.84
2019-03-10T10:15:20.241Z,10.8
2019-03-10T10:16:20.257Z,10.71
2019-03-10T10:17:20.261Z,10.77
2019-03-10T10:18:20.252Z,10.82
2019-03-10T10:19:20.225Z,10.74
2019-03-10T10:20:20.255Z,10.74
2019-03-10T10:21:20.237Z,10.81
2019-03-10T10:22:20.258Z,10.75
2019-03-10T10:23:20.244Z,10.85
2019-03-10T10:24:20.240Z,10.91
2019-03-10T10:25:20.237Z,10.9
2019-03-10T10:26:20.221Z,10.84
2019-03-10T10:27:20.488Z,10.81
2019-03-10T10:28:20.416Z,10.92
2019-03-10T10:29:20.242Z,10.96
2019-03-10T10:30:20.348Z,10.94
2019-03-10T10:31:20.315Z,10.83
2019-03-10T10:32:20.341Z,10.85
2019-03-10T10:33:20.464Z,10.77
2019-03-10T10:34:20.249Z,10.77
2019-03-10T10:35:20.195Z,10.77
2019-03-10T10:36:20.206Z,10.84
2019-03-10T10:37:20.225Z,10.82
2019-03-10T10:38:20.198Z,10.87
2019-03-10T10:39:20.267Z,10.78
2019-03-10T10:40:20.216Z,10.73
2019-03-10T10:41:20.235Z,10.79
2019-03-10T10:42:20.199Z,10.8
2019-03-10T10:43:20.174Z,10.68
2019-03-10T10:44:20.178Z,10.61
2019-03-10T10:45:20.204Z,10.59
2019-03-10T10:46:20.206Z,10.61
2019-03-10T10:47:20.208Z,10.67
2019-03-10T10:48:20.183Z,10.71
2019-03-10T10:49:20.262Z,10.6
2019-03-10T10:50:20.347Z,10.6
2019-03-10T10:51:20.242Z,10.65
2019-03-10T10:52:20.361Z,10.52
2019-03-10T10:53:21.864Z,10.44
2019-03-10T10:54:20.273Z,10.42
2019-03-10T10:55:20.452Z,10.47
2019-03-10T10:56:20.211Z,10.45
2019-03-10T10:57:20.349Z,10.55
2019-03-10T10:58:20.199Z,10.54
2019-03-10T10:59:20.183Z,10.59
2019-03-10T11:00:20.288Z,10.57
2019-03-10T11:01:20.193Z,10.46
2019-03-10T11:02:20.260Z,10.39
2019-03-10T11:03:20.220Z,10.24
2019-03-10T11:04:20.184Z,10.34
2019-03-10T11:05:20.311Z,10.44
2019-03-10T11:06:20.228Z,10.57
2019-03-10T11:07:20.162Z,10.49
2019-03-10T11:08:20.567Z,10.48
2019-03-10T11:09:20.191Z,10.53
2019-03-10T11:10:20.184Z,10.56
2019-03-10T11:11:20.192Z,10.58
2019-03-10T11:12:20.226Z,10.53
2019-03-10T11:13:20.210Z,10.54
2019-03-10T11:14:20.176Z,10.37
2019-03-10T11:15:20.186Z,10.37
2019-03-10T11:16:20.787Z,10.42
2019-03-10T11:17:20.231Z,10.35
2019-03-10T11:18:20.202Z,10.37
2019-03-10T11:19:20.166Z,10.35
2019-03-10T11:20:20.157Z,10.39
2019-03-10T11:21:20.148Z,10.36
2019-03-10T11:22:20.170Z,10.36
2019-03-10T11:23:20.141Z,10.32
2019-03-10T11:24:20.156Z,10.3
2019-03-10T11:25:20.125Z,10.33
2019-03-10T11:26:20.130Z,10.22
2019-03-10T11:27:20.175Z,10.26
2019-03-10T11:28:20.142Z,10.33
2019-03-10T11:29:20.286Z,10.31
2019-03-10T11:30:20.117Z,10.3
2019-03-10T11:31:20.259Z,10.19
2019-03-10T11:32:20.154Z,10.21
2019-03-10T11:33:20.241Z,10.33
2019-03-10T11:34:20.145Z,10.37
2019-03-10T11:35:20.123Z,10.32
2019-03-10T11:36:20.211Z,10.31
2019-03-10T11:37:20.450Z,10.42
2019-03-10T11:38:20.210Z,10.38
2019-03-10T11:39:20.188Z,10.32
2019-03-10T11:40:20.214Z,10.31
2019-03-10T11:41:20.164Z,10.27
2019-03-10T11:42:20.133Z,10.32
2019-03-10T11:43:23.110Z,10.39
2019-03-10T11:44:20.208Z,10.32
2019-03-10T11:45:20.138Z,10.36
2019-03-10T11:46:20.135Z,10.28
2019-03-10T11:47:20.134Z,10.15
2019-03-10T11:48:20.114Z,10.19
2019-03-10T11:49:20.163Z,10.2
2019-03-10T11:50:20.134Z,10.24
2019-03-10T11:51:20.151Z,10.14
2019-03-10T11:52:20.104Z,10.06
2019-03-10T11:53:20.102Z,10.16
2019-03-10T11:54:20.152Z,10.21
2019-03-10T11:55:20.532Z,10.22
2019-03-10T11:56:20.287Z,10.31
2019-03-10T11:57:20.165Z,10.22
2019-03-10T11:58:20.198Z,10.2
2019-03-10T11:59:20.139Z,10.27
2019-03-10T12:00:20.231Z,10.39
2019-03-10T12:01:20.097Z,10.43
2019-03-10T12:02:20.102Z,10.49
2019-03-10T12:03:20.089Z,10.49
2019-03-10T12:04:20.117Z,10.23
2019-03-10T12:05:20.089Z,10.31
2019-03-10T12:06:20.110Z,10.31
2019-03-10T12:07:20.114Z,10.3
2019-03-10T12:08:20.085Z,10.35
2019-03-10T12:09:20.153Z,10.43
2019-03-10T12:10:21.969Z,10.32
2019-03-10T12:11:20.122Z,10.19
2019-03-10T12:12:20.096Z,10.29
2019-03-10T12:13:20.094Z,10.02
2019-03-10T12:14:20.071Z,10.05
2019-03-10T12:15:20.111Z,9.85
2019-03-10T12:16:20.071Z,10.06
2019-03-10T12:17:20.155Z,10.04
2019-03-10T12:18:20.102Z,9.94
2019-03-10T12:19:20.064Z,9.9
2019-03-10T12:20:20.079Z,9.94
2019-03-10T12:21:20.412Z,9.92
2019-03-10T12:22:20.116Z,9.79
2019-03-10T12:23:20.117Z,9.77
2019-03-10T12:24:20.101Z,9.89
2019-03-10T12:25:20.070Z,9.64
2019-03-10T12:26:20.069Z,9.54
2019-03-10T12:27:20.192Z,9.57
2019-03-10T12:28:20.068Z,9.61
2019-03-10T12:29:20.118Z,9.7
2019-03-10T12:30:20.047Z,9.67
2019-03-10T12:31:20.080Z,9.56
2019-03-10T12:32:20.057Z,9.62
2019-03-10T12:33:20.244Z,9.72
2019-03-10T12:34:20.048Z,9.74
2019-03-10T12:35:20.051Z,9.61
2019-03-10T12:36:20.058Z,9.69
2019-03-10T12:37:20.072Z,9.59
2019-03-10T12:38:20.065Z,9.4
2019-03-10T12:39:20.084Z,9.52
2019-03-10T12:40:21.002Z,9.35
2019-03-10T12:41:20.063Z,9.5
2019-03-10T12:42:20.153Z,9.53
2019-03-10T12:43:20.061Z,9.46
2019-03-10T12:44:20.019Z,9.38
2019-03-10T12:45:20.043Z,9.57
2019-03-10T12:46:20.105Z,9.5
2019-03-10T12:47:20.014Z,9.56
2019-03-10T12:48:20.033Z,9.72
2019-03-10T12:49:20.039Z,9.66
2019-03-10T12:50:20.070Z,9.41
2019-03-10T12:51:20.034Z,9.49
2019-03-10T12:52:20.059Z,9.67
2019-03-10T12:53:20.021Z,9.33
2019-03-10T12:54:20.019Z,9.37
2019-03-10T12:55:20.006Z,9.06
2019-03-10T12:56:20.095Z,9.21
2019-03-10T12:57:20.005Z,9.09
2019-03-10T12:58:20.008Z,9.3
2019-03-10T12:59:20.012Z,9.24
2019-03-10T13:00:20.012Z,9.33
2019-03-10T13:01:20.009Z,9.2
2019-03-10T13:02:20.028Z,9.16
2019-03-10T13:03:20.011Z,8.88
2019-03-10T13:04:20.083Z,8.65
2019-03-10T13:05:20.606Z,8.92
2019-03-10T13:06:20.030Z,8.82
2019-03-10T13:07:20.003Z,8.82
2019-03-10T13:08:19.975Z,8.81
2019-03-10T13:09:20.002Z,8.7
2019-03-10T13:10:19.991Z,8.62
2019-03-10T13:11:19.996Z,8.77
2019-03-10T13:12:20.021Z,8.34
2019-03-10T13:13:20.020Z,8.42
2019-03-10T13:14:20.010Z,8.23